createdAt,value
2018-11-29T00:00:37.773Z,95.79
2018-11-29T00:03:08.272Z,95.85
2018-11-29T00:05:37.359Z,95.98
2018-11-29T00:08:06.775Z,95.52
2018-11-29T00:10:35.746Z,96.13
2018-11-29T00:13:05.182Z,96.01
2018-11-29T00:15:34.435Z,96.06
2018-11-29T00:18:03.485Z,95.74
2018-11-29T00:20:32.987Z,95.59
2018-11-29T00:23:01.941Z,95.90
2018-11-29T00:25:30.822Z,95.87
2018-11-29T00:27:59.755Z,96.25
2018-11-29T00:30:28.591Z,96.44
2018-11-29T00:32:57.642Z,95.77
2018-11-29T00:35:26.542Z,95.80
2018-11-29T00:37:55.521Z,95.76
2018-11-29T00:40:24.607Z,96.23
2018-11-29T00:42:53.593Z,95.99
2018-11-29T00:45:24.147Z,96.34
2018-11-29T00:47:53.240Z,96.67
2018-11-29T00:50:22.320Z,95.90
2018-11-29T00:52:51.720Z,96.44
2018-11-29T00:55:22.673Z,96.78
2018-11-29T00:57:52.412Z,95.99
2018-11-29T01:00:23.702Z,96.00
2018-11-29T01:02:52.643Z,96.31
2018-11-29T01:05:21.632Z,96.27
2018-11-29T01:07:50.518Z,96.39
2018-11-29T01:10:19.761Z,96.49
2018-11-29T01:12:49.013Z,95.75
2018-11-29T01:15:20.168Z,95.97
2018-11-29T01:17:50.111Z,96.38
2018-11-29T01:20:21.070Z,96.59
2018-11-29T01:22:50.022Z,96.70
2018-11-29T01:25:19.007Z,96.90
2018-11-29T01:27:49.527Z,96.90
2018-11-29T01:30:19.793Z,97.11
2018-11-29T01:32:48.711Z,97.12
2018-11-29T01:35:19.305Z,97.87
2018-11-29T01:37:48.635Z,97.84
2018-11-29T01:40:22.144Z,97.59
2018-11-29T01:42:57.414Z,97.22
2018-11-29T01:45:26.844Z,97.35
2018-11-29T01:47:56.776Z,98.10
2018-11-29T01:50:25.674Z,98.64
2018-11-29T01:52:54.537Z,99.13
2018-11-29T01:55:23.491Z,99.68
2018-11-29T01:57:52.437Z,99.82
2018-11-29T02:00:21.429Z,100.00
2018-11-29T02:02:51.925Z,100.00
2018-11-29T02:05:20.863Z,100.00
2018-11-29T02:07:49.725Z,100.00
2018-11-29T02:10:27.281Z,100.00
2018-11-29T02:12:56.315Z,100.00
2018-11-29T02:15:25.326Z,100.00
2018-11-29T02:17:54.198Z,100.00
2018-11-29T02:20:23.440Z,100.00
2018-11-29T02:22:52.337Z,100.00
2018-11-29T02:25:21.522Z,100.00
2018-11-29T02:27:50.338Z,100.00
2018-11-29T02:30:23.669Z,100.00
2018-11-29T02:32:52.872Z,100.00
2018-11-29T02:35:21.886Z,100.00
2018-11-29T02:37:50.743Z,100.00
2018-11-29T02:40:19.873Z,100.00
2018-11-29T02:42:49.728Z,100.00
2018-11-29T02:45:23.630Z,100.00
2018-11-29T02:47:52.592Z,100.00
2018-11-29T02:50:21.440Z,100.00
2018-11-29T02:52:50.416Z,100.00
2018-11-29T02:55:19.292Z,100.00
2018-11-29T02:57:48.163Z,100.00
2018-11-29T03:00:18.965Z,100.00
2018-11-29T03:02:48.028Z,100.00
2018-11-29T03:05:17.540Z,100.00
2018-11-29T03:07:46.516Z,100.00
2018-11-29T03:10:20.224Z,100.00
2018-11-29T03:12:49.122Z,100.00
2018-11-29T03:15:17.974Z,100.00
2018-11-29T03:17:46.967Z,100.00
2018-11-29T03:20:15.834Z,100.00
2018-11-29T03:22:44.747Z,100.00
2018-11-29T03:25:15.296Z,100.00
2018-11-29T03:27:44.644Z,100.00
2018-11-29T03:30:17.468Z,100.00
2018-11-29T03:32:46.360Z,100.00
2018-11-29T03:35:15.827Z,100.00
2018-11-29T03:37:44.800Z,100.00
2018-11-29T03:40:15.243Z,100.00
2018-11-29T03:42:44.808Z,100.00
2018-11-29T03:45:15.672Z,100.00
2018-11-29T03:47:45.261Z,100.00
2018-11-29T03:50:17.901Z,100.00
2018-11-29T03:52:47.298Z,100.00
2018-11-29T03:55:16.180Z,100.00
2018-11-29T03:57:45.122Z,100.00
2018-11-29T04:00:16.243Z,100.00
2018-11-29T04:02:47.080Z,100.00
2018-11-29T04:05:16.222Z,100.00
2018-11-29T04:07:45.212Z,100.00
2018-11-29T04:10:15.444Z,100.00
2018-11-29T04:12:44.376Z,100.00
2018-11-29T04:15:14.589Z,100.00
2018-11-29T04:17:44.069Z,100.00
2018-11-29T04:20:15.236Z,100.00
2018-11-29T04:22:44.169Z,100.00
2018-11-29T04:25:14.295Z,100.00
2018-11-29T04:27:43.249Z,100.00
2018-11-29T04:30:13.864Z,100.00
2018-11-29T04:32:42.881Z,100.00
2018-11-29T04:35:12.280Z,100.00
2018-11-29T04:37:41.250Z,100.00
2018-11-29T04:40:14.662Z,100.00
2018-11-29T04:42:43.729Z,100.00
2018-11-29T04:45:17.004Z,100.00
2018-11-29T04:47:46.391Z,100.00
2018-11-29T04:50:16.483Z,100.00
2018-11-29T04:52:45.509Z,100.00
2018-11-29T04:55:14.748Z,100.00
2018-11-29T04:57:43.604Z,100.00
2018-11-29T05:00:15.317Z,100.00
2018-11-29T05:02:44.524Z,100.00
2018-11-29T05:05:13.994Z,100.00
2018-11-29T05:07:42.894Z,100.00
2018-11-29T05:10:16.009Z,100.00
2018-11-29T05:12:45.439Z,100.00
2018-11-29T05:15:14.434Z,100.00
2018-11-29T05:17:43.302Z,100.00
2018-11-29T05:20:12.203Z,100.00
2018-11-29T05:22:41.040Z,100.00
2018-11-29T05:25:09.950Z,100.00
2018-11-29T05:27:38.919Z,100.00
2018-11-29T05:30:13.215Z,100.00
2018-11-29T05:32:42.126Z,100.00
2018-11-29T05:35:12.109Z,100.00
2018-11-29T05:37:41.563Z,100.00
2018-11-29T05:40:12.323Z,100.00
2018-11-29T05:42:41.329Z,100.00
2018-11-29T05:45:11.064Z,100.00
2018-11-29T05:47:39.968Z,100.00
2018-11-29T05:50:10.763Z,100.00
2018-11-29T05:52:40.054Z,100.00
2018-11-29T05:55:11.059Z,100.00
2018-11-29T05:57:39.971Z,100.00
2018-11-29T06:00:13.175Z,100.00
2018-11-29T06:02:42.581Z,100.00
2018-11-29T06:05:13.376Z,100.00
2018-11-29T06:07:42.268Z,100.00
2018-11-29T06:10:11.169Z,100.00
2018-11-29T06:12:40.042Z,100.00
2018-11-29T06:15:11.692Z,100.00
2018-11-29T06:17:41.003Z,100.00
2018-11-29T06:20:12.543Z,100.00
2018-11-29T06:22:41.454Z,100.00
2018-11-29T06:25:10.696Z,100.00
2018-11-29T06:27:39.768Z,100.00
2018-11-29T06:30:17.017Z,100.00
2018-11-29T06:32:46.269Z,100.00
2018-11-29T06:35:15.241Z,100.00
2018-11-29T06:37:44.134Z,100.00
2018-11-29T06:40:14.299Z,100.00
2018-11-29T06:42:43.355Z,100.00
2018-11-29T06:45:17.698Z,100.00
2018-11-29T06:47:47.705Z,100.00
2018-11-29T06:50:16.719Z,100.00
2018-11-29T06:52:47.124Z,100.00
2018-11-29T06:55:20.549Z,100.00
2018-11-29T06:57:49.543Z,100.00
2018-11-29T07:00:35.775Z,100.00
2018-11-29T07:03:05.402Z,100.00
2018-11-29T07:05:34.368Z,100.00
2018-11-29T07:08:03.395Z,100.00
2018-11-29T07:10:35.048Z,100.00
2018-11-29T07:13:06.230Z,100.00
2018-11-29T07:15:35.131Z,100.00
2018-11-29T07:18:04.124Z,100.00
2018-11-29T07:20:33.098Z,100.00
2018-11-29T07:23:01.953Z,100.00
2018-11-29T07:25:30.830Z,100.00
2018-11-29T07:27:59.653Z,100.00
2018-11-29T07:30:28.696Z,100.00
2018-11-29T07:32:57.530Z,100.00
2018-11-29T07:35:26.440Z,100.00
2018-11-29T07:37:55.279Z,100.00
2018-11-29T07:40:24.158Z,100.00
2018-11-29T07:42:54.607Z,100.00
2018-11-29T07:45:24.001Z,100.00
2018-11-29T07:47:52.881Z,100.00
2018-11-29T07:50:22.958Z,100.00
2018-11-29T07:52:51.815Z,100.00
2018-11-29T07:55:21.726Z,100.00
2018-11-29T07:57:52.129Z,100.00
2018-11-29T08:00:21.174Z,100.00
2018-11-29T08:02:50.125Z,100.00
2018-11-29T08:05:19.011Z,100.00
2018-11-29T08:07:48.937Z,100.00
2018-11-29T08:10:19.121Z,100.00
2018-11-29T08:12:48.315Z,100.00
2018-11-29T08:15:20.166Z,100.00
2018-11-29T08:17:49.254Z,100.00
2018-11-29T08:20:20.634Z,100.00
2018-11-29T08:22:49.532Z,100.00
2018-11-29T08:25:18.466Z,100.00
2018-11-29T08:27:47.410Z,100.00
2018-11-29T08:30:16.913Z,100.00
2018-11-29T08:32:45.809Z,100.00
2018-11-29T08:35:15.713Z,100.00
2018-11-29T08:37:46.153Z,100.00
2018-11-29T08:40:19.877Z,100.00
2018-11-29T08:42:48.838Z,100.00
2018-11-29T08:45:17.735Z,100.00
2018-11-29T08:47:46.769Z,100.00
2018-11-29T08:50:15.920Z,100.00
2018-11-29T08:52:46.481Z,100.00
2018-11-29T08:55:17.925Z,100.00
2018-11-29T08:57:47.924Z,100.00
2018-11-29T09:00:19.311Z,100.00
2018-11-29T09:02:48.372Z,100.00
2018-11-29T09:05:17.368Z,100.00
2018-11-29T09:07:47.663Z,100.00
2018-11-29T09:10:18.575Z,100.00
2018-11-29T09:12:47.543Z,100.00
2018-11-29T09:15:17.415Z,100.00
2018-11-29T09:17:46.711Z,100.00
2018-11-29T09:20:17.999Z,100.00
2018-11-29T09:22:46.879Z,100.00
2018-11-29T09:25:17.340Z,100.00
2018-11-29T09:27:46.288Z,100.00
2018-11-29T09:30:18.590Z,100.00
2018-11-29T09:32:48.939Z,100.00
2018-11-29T09:35:19.279Z,100.00
2018-11-29T09:37:48.199Z,100.00
2018-11-29T09:40:18.122Z,100.00
2018-11-29T09:42:47.292Z,100.00
2018-11-29T09:45:24.178Z,100.00
2018-11-29T09:47:56.756Z,100.00
2018-11-29T09:50:26.369Z,100.00
2018-11-29T09:52:55.595Z,100.00
2018-11-29T09:55:24.502Z,100.00
2018-11-29T09:57:53.406Z,100.00
2018-11-29T10:00:28.044Z,100.00
2018-11-29T10:03:09.677Z,100.00
2018-11-29T10:05:39.478Z,100.00
2018-11-29T10:08:11.978Z,100.00
2018-11-29T10:10:39.477Z,100.00
2018-11-29T10:13:08.426Z,100.00
2018-11-29T10:15:37.466Z,100.00
2018-11-29T10:18:07.298Z,100.00
2018-11-29T10:20:36.131Z,100.00
2018-11-29T10:23:05.622Z,100.00
2018-11-29T10:25:36.493Z,100.00
2018-11-29T10:28:18.625Z,100.00
2018-11-29T10:30:56.188Z,100.00
2018-11-29T10:33:25.440Z,100.00
2018-11-29T10:35:59.070Z,100.00
2018-11-29T10:38:23.658Z,100.00
2018-11-29T10:40:52.575Z,100.00
2018-11-29T10:43:21.503Z,100.00
2018-11-29T10:45:50.469Z,100.00
2018-11-29T10:48:21.929Z,100.00
2018-11-29T10:50:50.910Z,100.00
2018-11-29T10:53:20.035Z,100.00
2018-11-29T10:55:48.929Z,100.00
2018-11-29T10:58:17.828Z,100.00
2018-11-29T11:00:52.299Z,100.00
2018-11-29T11:03:21.579Z,100.00
2018-11-29T11:05:52.166Z,100.00
2018-11-29T11:08:21.368Z,100.00
2018-11-29T11:10:50.620Z,100.00
2018-11-29T11:13:19.475Z,100.00
2018-11-29T11:15:48.360Z,100.00
2018-11-29T11:18:17.906Z,100.00
2018-11-29T11:20:46.817Z,100.00
2018-11-29T11:23:15.722Z,100.00
2018-11-29T11:25:44.655Z,100.00
2018-11-29T11:28:13.469Z,100.00
2018-11-29T11:30:43.872Z,100.00
2018-11-29T11:33:12.724Z,100.00
2018-11-29T11:35:41.727Z,100.00
2018-11-29T11:38:10.562Z,100.00
2018-11-29T11:40:39.449Z,100.00
2018-11-29T11:43:08.533Z,100.00
2018-11-29T11:45:37.440Z,100.00
2018-11-29T11:48:07.151Z,100.00
2018-11-29T11:50:36.978Z,100.00
2018-11-29T11:53:07.792Z,100.00
2018-11-29T11:55:37.577Z,100.00
2018-11-29T11:58:07.602Z,100.00
2018-11-29T12:00:37.165Z,100.00
2018-11-29T12:03:13.056Z,100.00
2018-11-29T12:05:42.239Z,100.00
2018-11-29T12:08:11.211Z,100.00
2018-11-29T12:10:41.970Z,100.00
2018-11-29T12:13:10.932Z,100.00
2018-11-29T12:15:39.775Z,100.00
2018-11-29T12:18:10.844Z,100.00
2018-11-29T12:20:39.816Z,100.00
2018-11-29T12:23:09.210Z,100.00
2018-11-29T12:25:38.035Z,100.00
2018-11-29T12:28:07.110Z,100.00
2018-11-29T12:30:41.225Z,100.00
2018-11-29T12:33:10.158Z,100.00
2018-11-29T12:35:39.059Z,100.00
2018-11-29T12:38:07.968Z,100.00
2018-11-29T12:40:36.797Z,100.00
2018-11-29T12:43:05.838Z,100.00
2018-11-29T12:45:35.043Z,100.00
2018-11-29T12:48:03.923Z,100.00
2018-11-29T12:50:34.399Z,100.00
2018-11-29T12:53:03.315Z,100.00
2018-11-29T12:55:32.159Z,100.00
2018-11-29T12:58:06.112Z,100.00
2018-11-29T13:00:30.071Z,100.00
2018-11-29T13:02:59.643Z,100.00
2018-11-29T13:05:29.116Z,100.00
2018-11-29T13:07:58.086Z,100.00
2018-11-29T13:10:27.971Z,100.00
2018-11-29T13:12:56.858Z,100.00
2018-11-29T13:15:31.323Z,100.00
2018-11-29T13:18:03.045Z,100.00
2018-11-29T13:20:32.731Z,100.00
2018-11-29T13:23:00.884Z,100.00
2018-11-29T13:25:29.842Z,100.00
2018-11-29T13:27:58.720Z,100.00
2018-11-29T13:30:27.570Z,100.00
2018-11-29T13:32:57.245Z,100.00
2018-11-29T13:35:31.092Z,100.00
2018-11-29T13:38:03.210Z,100.00
2018-11-29T13:40:32.132Z,100.00
2018-11-29T13:43:01.077Z,100.00
2018-11-29T13:45:29.955Z,100.00
2018-11-29T13:47:58.787Z,100.00
2018-11-29T13:50:27.798Z,100.00
2018-11-29T13:52:56.626Z,100.00
2018-11-29T13:55:25.637Z,100.00
2018-11-29T13:57:54.544Z,100.00
2018-11-29T14:00:24.108Z,100.00
2018-11-29T14:02:57.084Z,100.00
2018-11-29T14:05:26.097Z,100.00
2018-11-29T14:07:55.212Z,100.00
2018-11-29T14:10:24.844Z,100.00
2018-11-29T14:12:55.407Z,100.00
2018-11-29T14:15:26.227Z,100.00
2018-11-29T14:17:55.240Z,100.00
2018-11-29T14:20:24.253Z,100.00
2018-11-29T14:22:53.137Z,100.00
2018-11-29T14:25:22.144Z,100.00
2018-11-29T14:27:54.686Z,100.00
2018-11-29T14:30:26.982Z,100.00
2018-11-29T14:32:58.510Z,100.00
2018-11-29T14:35:27.523Z,100.00
2018-11-29T14:37:56.740Z,100.00
2018-11-29T14:40:27.545Z,100.00
2018-11-29T14:42:56.454Z,100.00
2018-11-29T14:45:26.458Z,100.00
2018-11-29T14:47:55.844Z,100.00
2018-11-29T14:50:32.040Z,100.00
2018-11-29T14:53:01.034Z,100.00
2018-11-29T14:55:29.915Z,100.00
2018-11-29T14:57:58.858Z,100.00
2018-11-29T15:00:27.778Z,100.00
2018-11-29T15:02:57.981Z,100.00
2018-11-29T15:05:29.912Z,100.00
2018-11-29T15:07:59.889Z,100.00
2018-11-29T15:10:28.802Z,100.00
2018-11-29T15:12:57.993Z,100.00
2018-11-29T15:15:26.916Z,100.00
2018-11-29T15:17:55.944Z,100.00
2018-11-29T15:20:27.304Z,100.00
2018-11-29T15:22:56.072Z,100.00
2018-11-29T15:25:24.937Z,100.00
2018-11-29T15:27:53.870Z,100.00
2018-11-29T15:30:23.509Z,100.00
2018-11-29T15:32:53.311Z,100.00
2018-11-29T15:35:23.544Z,100.00
2018-11-29T15:37:52.454Z,100.00
2018-11-29T15:40:21.509Z,100.00
2018-11-29T15:42:50.544Z,100.00
2018-11-29T15:45:22.027Z,100.00
2018-11-29T15:47:51.087Z,100.00
2018-11-29T15:50:20.022Z,100.00
2018-11-29T15:52:48.944Z,100.00
2018-11-29T15:55:20.511Z,100.00
2018-11-29T15:57:50.892Z,100.00
2018-11-29T16:00:28.146Z,100.00
2018-11-29T16:02:59.677Z,100.00
2018-11-29T16:05:28.625Z,100.00
2018-11-29T16:07:57.543Z,100.00
2018-11-29T16:10:27.279Z,100.00
2018-11-29T16:12:56.118Z,100.00
2018-11-29T16:15:25.076Z,100.00
2018-11-29T16:17:54.500Z,100.00
2018-11-29T16:20:31.321Z,100.00
2018-11-29T16:23:00.452Z,100.00
2018-11-29T16:25:29.404Z,100.00
2018-11-29T16:27:58.405Z,100.00
2018-11-29T16:30:48.605Z,100.00
2018-11-29T16:33:25.706Z,100.00
2018-11-29T16:35:55.438Z,100.00
2018-11-29T16:38:24.551Z,100.00
2018-11-29T16:40:53.485Z,100.00
2018-11-29T16:43:22.628Z,100.00
2018-11-29T16:45:51.483Z,100.00
2018-11-29T16:48:20.374Z,100.00
2018-11-29T16:50:49.387Z,100.00
2018-11-29T16:53:18.330Z,100.00
2018-11-29T16:55:47.205Z,100.00
2018-11-29T16:58:20.653Z,100.00
2018-11-29T17:00:49.569Z,100.00
2018-11-29T17:03:18.506Z,100.00
2018-11-29T17:05:47.429Z,100.00
2018-11-29T17:08:16.675Z,100.00
2018-11-29T17:10:45.532Z,100.00
2018-11-29T17:13:16.735Z,100.00
2018-11-29T17:15:45.720Z,100.00
2018-11-29T17:18:14.738Z,100.00
2018-11-29T17:20:43.653Z,100.00
2018-11-29T17:23:12.943Z,100.00
2018-11-29T17:25:42.069Z,100.00
2018-11-29T17:28:11.904Z,100.00
2018-11-29T17:30:40.758Z,100.00
2018-11-29T17:33:10.479Z,100.00
2018-11-29T17:35:46.572Z,100.00
2018-11-29T17:38:17.354Z,100.00
2018-11-29T17:40:48.273Z,100.00
2018-11-29T17:43:17.766Z,100.00
2018-11-29T17:45:47.533Z,100.00
2018-11-29T17:48:16.860Z,100.00
2018-11-29T17:50:45.803Z,100.00
2018-11-29T17:53:14.647Z,100.00
2018-11-29T17:55:43.705Z,100.00
2018-11-29T17:58:14.595Z,100.00
2018-11-29T18:00:46.081Z,100.00
2018-11-29T18:03:19.227Z,100.00
2018-11-29T18:05:48.852Z,100.00
2018-11-29T18:08:17.712Z,100.00
2018-11-29T18:10:49.939Z,100.00
2018-11-29T18:13:25.847Z,100.00
2018-11-29T18:15:54.775Z,100.00
2018-11-29T18:18:23.557Z,100.00
2018-11-29T18:20:52.526Z,100.00
2018-11-29T18:23:21.357Z,100.00
2018-11-29T18:25:50.313Z,100.00
2018-11-29T18:28:19.152Z,100.00
2018-11-29T18:30:48.001Z,100.00
2018-11-29T18:33:16.898Z,100.00
2018-11-29T18:35:45.739Z,100.00
2018-11-29T18:38:14.569Z,100.00
2018-11-29T18:40:43.469Z,100.00
2018-11-29T18:43:12.307Z,100.00
2018-11-29T18:45:41.368Z,100.00
2018-11-29T18:48:10.811Z,100.00
2018-11-29T18:50:40.303Z,100.00
2018-11-29T18:53:09.194Z,100.00
2018-11-29T18:55:38.101Z,100.00
2018-11-29T18:58:07.695Z,100.00
2018-11-29T19:00:37.467Z,100.00
2018-11-29T19:03:07.895Z,100.00
2018-11-29T19:05:36.701Z,100.00
2018-11-29T19:08:07.585Z,100.00
2018-11-29T19:10:36.505Z,100.00
2018-11-29T19:13:09.116Z,100.00
2018-11-29T19:15:38.348Z,100.00
2018-11-29T19:18:10.510Z,100.00
2018-11-29T19:20:37.666Z,100.00
2018-11-29T19:23:06.876Z,100.00
2018-11-29T19:25:36.948Z,100.00
2018-11-29T19:28:06.734Z,100.00
2018-11-29T19:30:35.927Z,100.00
2018-11-29T19:33:21.898Z,100.00
2018-11-29T19:35:52.888Z,100.00
2018-11-29T19:38:21.788Z,100.00
2018-11-29T19:40:50.664Z,100.00
2018-11-29T19:43:19.597Z,100.00
2018-11-29T19:45:48.493Z,100.00
2018-11-29T19:48:17.398Z,100.00
2018-11-29T19:50:46.324Z,100.00
2018-11-29T19:53:22.948Z,100.00
2018-11-29T19:55:54.670Z,99.93
2018-11-29T19:58:23.544Z,99.92
2018-11-29T20:00:56.075Z,100.00
2018-11-29T20:03:24.974Z,99.59
2018-11-29T20:05:53.882Z,99.32
2018-11-29T20:08:22.736Z,99.38
2018-11-29T20:10:51.635Z,99.48
2018-11-29T20:13:21.426Z,98.78
2018-11-29T20:15:52.331Z,97.95
2018-11-29T20:18:21.277Z,98.88
2018-11-29T20:20:50.538Z,98.15
2018-11-29T20:23:19.442Z,98.07
2018-11-29T20:25:48.384Z,98.17
2018-11-29T20:28:17.535Z,98.44
2018-11-29T20:30:46.596Z,97.92
2018-11-29T20:33:15.460Z,97.35
2018-11-29T20:35:44.342Z,95.58
2018-11-29T20:38:13.221Z,96.08
2018-11-29T20:40:44.655Z,96.08
2018-11-29T20:43:14.105Z,95.11
2018-11-29T20:45:53.897Z,96.13
2018-11-29T20:48:26.811Z,96.27
2018-11-29T20:50:58.176Z,95.68
2018-11-29T20:53:37.667Z,95.38
2018-11-29T20:56:11.151Z,94.34
2018-11-29T20:58:40.067Z,94.42
2018-11-29T21:01:11.164Z,94.32
2018-11-29T21:03:40.952Z,93.62
2018-11-29T21:06:12.418Z,93.86
2018-11-29T21:08:42.373Z,93.35
2018-11-29T21:11:11.896Z,92.79
2018-11-29T21:13:40.861Z,91.90
2018-11-29T21:16:09.875Z,92.28
2018-11-29T21:18:39.833Z,92.01
2018-11-29T21:21:09.577Z,91.36
2018-11-29T21:23:38.507Z,90.58
2018-11-29T21:26:08.534Z,90.67
2018-11-29T21:28:37.772Z,90.30
2018-11-29T21:31:07.425Z,89.87
2018-11-29T21:33:37.051Z,90.20
2018-11-29T21:36:06.379Z,89.54
2018-11-29T21:38:35.846Z,89.44
2018-11-29T21:41:05.837Z,88.50
2018-11-29T21:43:35.559Z,87.76
2018-11-29T21:46:04.468Z,87.87
2018-11-29T21:48:34.115Z,87.69
2018-11-29T21:51:03.148Z,86.60
2018-11-29T21:53:32.982Z,86.19
2018-11-29T21:56:02.466Z,85.54
2018-11-29T21:58:31.433Z,84.39
2018-11-29T22:01:00.403Z,84.62
2018-11-29T22:03:29.858Z,83.96
2018-11-29T22:05:58.867Z,84.47
2018-11-29T22:08:27.916Z,84.77
2018-11-29T22:10:56.835Z,84.96
2018-11-29T22:13:26.131Z,84.63
2018-11-29T22:15:55.092Z,84.39
2018-11-29T22:18:25.488Z,84.86
2018-11-29T22:20:57.195Z,84.20
2018-11-29T22:23:26.646Z,84.11
2018-11-29T22:25:57.734Z,83.14
2018-11-29T22:28:26.828Z,83.68
2018-11-29T22:30:56.351Z,83.76
2018-11-29T22:33:25.798Z,83.92
2018-11-29T22:35:54.917Z,83.85
2018-11-29T22:38:23.937Z,84.11
2018-11-29T22:40:52.931Z,84.73
2018-11-29T22:43:22.480Z,85.71
2018-11-29T22:45:51.530Z,85.85
2018-11-29T22:48:20.649Z,86.23
2018-11-29T22:50:49.638Z,85.84
2018-11-29T22:53:18.783Z,86.93
2018-11-29T22:55:47.693Z,86.79
2018-11-29T22:58:16.568Z,86.79
2018-11-29T23:00:52.623Z,86.40
2018-11-29T23:03:22.031Z,85.92
2018-11-29T23:05:50.932Z,86.40
2018-11-29T23:08:20.578Z,85.60
2018-11-29T23:10:49.451Z,85.62
2018-11-29T23:13:19.199Z,85.94
2018-11-29T23:15:48.128Z,85.74
2018-11-29T23:18:17.119Z,86.11
2018-11-29T23:20:46.009Z,86.07
2018-11-29T23:23:14.888Z,86.11
2018-11-29T23:25:44.180Z,86.57
2018-11-29T23:28:13.151Z,85.73
2018-11-29T23:30:42.393Z,85.89
2018-11-29T23:33:11.288Z,85.24
2018-11-29T23:35:40.191Z,85.98
2018-11-29T23:38:09.016Z,86.22
2018-11-29T23:40:38.037Z,85.58
2018-11-29T23:43:06.899Z,84.37
2018-11-29T23:45:35.804Z,84.82
2018-11-29T23:48:04.683Z,85.65
2018-11-29T23:50:33.628Z,84.68
2018-11-29T23:53:02.583Z,85.32
2018-11-29T23:55:31.695Z,84.33
2018-11-29T23:58:00.506Z,84.21
